Air Navigation Services of Czech Republic  
Last data update:  01.12.2022 06:55:35 UTC česká verze
   METEO Page displayed:  01.12.2022 06:56:44 UTC  
vysvětlivky
METAR EDAC 010650Z AUTO 03005KT 360V080 1800 // BKN002/// OVC005/// M00/M01 Q1026=
METAR EDDB 010650Z AUTO 07008KT 5000 BR OVC005 M00/M01 Q1028=
METAR EDDC 010650Z AUTO 06006KT 1300 1200 R22/1900N BR OVC001 M01/M01 Q1026 TEMPO 0800 FZFG=
METAR EDDE 010650Z AUTO 04007KT 3400 BR BKN003 01/01 Q1025 TEMPO 2500=
METAR EDDF 010650Z AUTO 07007KT 9999 OVC016 04/02 Q1025 TEMPO 4500 BR=
METAR EDDM 010650Z AUTO 04004KT 9999 FEW006 OVC014 02/00 Q1021 TEMPO BKN008 BKN015=
METAR EDDN 010650Z AUTO 35005KT 9999 OVC040 02/00 Q1023 NOSIG=
METAR EDDP 010650Z AUTO 07007KT 0650 0550 R08R/0800N R08L/0750N FZFG VV003 M00/M01 Q1027 TEMPO 0500 FZFG=
METAR EDQM 010620Z 02007KT 4900 BR SCT004 BKN042 M00/M01 Q1023=
METAR EPBY 010630Z 08005KT 9999 OVC017 01/M02 Q1030=
METAR EPGD 010630Z 12008KT 9999 OVC011 00/M02 Q1031=
METAR EPKK 010630Z 07010KT 9999 OVC009 01/M01 Q1026=
METAR EPKT 010630Z 09008KT 9999 OVC009 01/M01 Q1026=
METAR EPLB 010630Z 08008KT 6000 BKN005 OVC007 M00/M00 Q1029=
METAR EPLL 010630Z 09007KT 9000 OVC007 01/M00 Q1028=
METAR EPMO 010630Z 06006KT 8000 SCT007 BKN029 01/00 Q1030=
METAR EPPO 010630Z 08004KT 9999 OVC019 01/M02 Q1029=
METAR EPRZ 010630Z 06010KT 050V110 9999 -SN OVC008 01/M01 Q1027=
METAR EPWA 010630Z 08005KT 9999 BKN009 BKN030 01/M00 Q1030 NOSIG=
METAR EPWR 010630Z 04004KT 8000 OVC014 M00/M02 Q1028=
METAR LHBP 010630Z 06003KT CAVOK M02/M03 Q1023 NOSIG=
METAR LHSM 010615Z AUTO 34002KT 2900 BR FEW028 OVC045 03/03 Q1022 BECMG 5000 BR=
METAR LKBC NIL
METAR LKCS 010630Z AUTO 00000KT 9000 FEW051/// OVC079/// 01/M00 Q1022=
METAR LKCV 010630Z 03003KT 350V060 CAVOK 01/M01 Q1024 NOSIG RMK BLU BLU=
METAR LKKB 010630Z 35002KT 7000 NSC M00/M01 Q1024 NOSIG RMK WHT WHT=
METAR LKKU 010637Z 01010KT 280V040 6000 FEW022 M01/M03 Q1024=
METAR LKKV 010630Z 05005KT CAVOK 01/M02 Q1022=
METAR LKLN 010630Z AUTO VRB04KT 7000 OVC058 02/M00 Q1023=
METAR LKMT 010630Z 06005KT 020V080 5000 BR OVC008 M00/M02 Q1025 NOSIG=
METAR LKNA 010630Z 11003KT CAVOK M01/M03 Q1022 NOSIG RMK BLU BLU=
METAR LKPD 010630Z 08004KT CAVOK 01/M01 Q1024 NOSIG RMK BLU BLU=
METAR LKPJ 010630Z AUTO 36004KT 7000 FEW150/// M01/M03 Q1025=
METAR LKPR 010630Z 35003KT 4200 BR NSC M01/M01 Q1023 NOSIG=
METAR LKTB 010630Z 07011KT 7000 NSC M00/M02 Q1024 NOSIG=
METAR LKVO NIL
METAR LOWG 010650Z VRB02KT 8000 RA SCT008 BKN011 OVC023 02/01 Q1022 BECMG TL0710 -RA=
METAR LOWI 010650Z 09005KT 9999 FEW005 SCT010 BKN013 02/01 Q1020 TEMPO SCT012 BKN018=
METAR LOWK 010650Z AUTO 00000KT 3000 -SN BKN003 OVC025 01/01 Q1021 TEMPO 8000 BKN009=
METAR LOWL 010650Z AUTO 09005KT 6000 FEW070 01/M00 Q1022 NOSIG=
METAR LOWS 010650Z 33002KT 6000 FEW010 BKN012 01/01 Q1021 NOSIG=
METAR LOWW 010650Z 35005KT 7000 NSC 01/M02 Q1024 NOSIG=
METAR LOXZ 010650Z 15002KT 1200 -SN BR SCT003 OVC007 01/00 Q1021 NOSIG=
METAR LZIB 010630Z VRB02KT 9000 NSC 01/M00 Q1023 NOSIG=
METAR LZKZ 010630Z 01014KT CAVOK 00/M03 Q1024 NOSIG=
METAR LZPP 010630Z 01003KT CAVOK M01/M03 Q1023=
METAR LZTT 010630Z VRB02KT 5000 BR OVC004 M03/M04 Q1023 NOSIG=
METAR LZZI 010630Z 12005KT 8000 NSC M02/M04 Q1024=